createdAt,value
2022-10-20T00:02:26.074Z,3.30
2022-10-20T00:04:54.789Z,3.30
2022-10-20T00:07:30.253Z,3.20
2022-10-20T00:10:01.595Z,3.20
2022-10-20T00:12:32.327Z,3.20
2022-10-20T00:15:02.498Z,3.20
2022-10-20T00:17:31.145Z,3.20
2022-10-20T00:20:01.618Z,3.10
2022-10-20T00:22:35.135Z,3.20
2022-10-20T00:25:05.707Z,3.20
2022-10-20T00:27:34.478Z,3.30
2022-10-20T00:30:06.494Z,3.30
2022-10-20T00:32:36.984Z,3.30
2022-10-20T00:35:07.723Z,3.30
2022-10-20T00:37:39.208Z,3.30
2022-10-20T00:40:13.280Z,3.30
2022-10-20T00:42:50.708Z,3.40
2022-10-20T00:45:22.308Z,3.40
2022-10-20T00:47:57.423Z,3.40
2022-10-20T00:50:29.151Z,3.40
2022-10-20T00:53:00.381Z,3.30
2022-10-20T00:55:31.202Z,3.30
2022-10-20T00:58:02.171Z,3.30
2022-10-20T01:00:31.188Z,3.30
2022-10-20T01:03:01.966Z,3.30
2022-10-20T01:05:30.624Z,3.30
2022-10-20T01:08:01.836Z,3.40
2022-10-20T01:10:42.392Z,3.40
2022-10-20T01:13:21.272Z,3.40
2022-10-20T01:15:58.729Z,3.30
2022-10-20T01:18:35.555Z,3.30
2022-10-20T01:21:32.487Z,3.30
2022-10-20T01:24:19.117Z,3.20
2022-10-20T01:27:26.939Z,3.20
2022-10-20T01:30:00.033Z,3.10
2022-10-20T01:32:39.144Z,3.10
2022-10-20T01:35:15.500Z,3.00
2022-10-20T01:37:51.207Z,3.00
2022-10-20T01:40:27.969Z,3.00
2022-10-20T01:43:02.802Z,3.00
2022-10-20T01:46:18.261Z,3.00
2022-10-20T01:48:49.226Z,3.00
2022-10-20T01:51:17.887Z,3.00
2022-10-20T01:53:46.480Z,3.00
2022-10-20T01:56:19.958Z,3.00
2022-10-20T01:59:12.451Z,3.00
2022-10-20T02:01:56.223Z,2.90
2022-10-20T02:04:34.863Z,2.90
2022-10-20T02:07:13.371Z,2.90
2022-10-20T02:09:48.035Z,2.80
2022-10-20T02:12:23.855Z,2.80
2022-10-20T02:14:56.062Z,2.80
2022-10-20T02:17:24.893Z,2.80
2022-10-20T02:19:54.679Z,2.80
2022-10-20T02:22:24.529Z,2.70
2022-10-20T02:24:53.516Z,2.70
2022-10-20T02:27:26.154Z,2.70
2022-10-20T02:30:00.964Z,2.70
2022-10-20T02:32:31.592Z,2.70
2022-10-20T02:35:04.956Z,2.60
2022-10-20T02:37:36.138Z,2.60
2022-10-20T02:40:06.048Z,2.60
2022-10-20T02:42:34.630Z,2.60
2022-10-20T02:45:05.799Z,2.60
2022-10-20T02:47:34.990Z,2.50
2022-10-20T02:50:03.983Z,2.60
2022-10-20T02:52:32.691Z,2.60
2022-10-20T02:55:01.293Z,2.50
2022-10-20T02:57:30.052Z,2.50
2022-10-20T02:59:58.767Z,2.50
2022-10-20T03:02:28.812Z,2.50
2022-10-20T03:04:57.470Z,2.40
2022-10-20T03:07:26.151Z,2.40
2022-10-20T03:09:54.873Z,2.40
2022-10-20T03:12:23.454Z,2.40
2022-10-20T03:14:52.158Z,2.40
2022-10-20T03:17:20.765Z,2.30
2022-10-20T03:19:51.463Z,2.30
2022-10-20T03:22:20.374Z,2.30
2022-10-20T03:24:49.027Z,2.30
2022-10-20T03:27:17.778Z,2.20
2022-10-20T03:29:46.538Z,2.20
2022-10-20T03:32:15.252Z,2.20
2022-10-20T03:34:43.870Z,2.10
2022-10-20T03:37:14.273Z,2.10
2022-10-20T03:39:43.223Z,2.10
2022-10-20T03:42:12.194Z,2.10
2022-10-20T03:44:41.530Z,2.10
2022-10-20T03:47:11.082Z,2.00
2022-10-20T03:49:39.774Z,2.00
2022-10-20T03:52:09.174Z,2.00
2022-10-20T03:54:40.995Z,2.00
2022-10-20T03:57:09.637Z,2.00
2022-10-20T03:59:38.829Z,1.90
2022-10-20T04:02:07.584Z,1.90
2022-10-20T04:04:36.222Z,1.90
2022-10-20T04:07:04.929Z,1.80
2022-10-20T04:09:33.765Z,1.80
2022-10-20T04:12:03.810Z,1.90
2022-10-20T04:14:32.517Z,1.90
2022-10-20T04:17:01.233Z,1.80
2022-10-20T04:19:29.870Z,1.80
2022-10-20T04:21:58.528Z,1.80
2022-10-20T04:24:27.260Z,1.80
2022-10-20T04:26:55.944Z,1.80
2022-10-20T04:29:26.131Z,1.70
2022-10-20T04:31:54.717Z,1.70
2022-10-20T04:34:23.617Z,1.70
2022-10-20T04:36:52.699Z,1.70
2022-10-20T04:39:21.589Z,1.70
2022-10-20T04:41:50.436Z,1.70
2022-10-20T04:44:19.292Z,1.70
2022-10-20T04:46:49.526Z,1.70
2022-10-20T04:49:18.451Z,1.70
2022-10-20T04:51:47.504Z,1.70
2022-10-20T04:54:16.491Z,1.70
2022-10-20T04:56:45.226Z,1.60
2022-10-20T04:59:14.128Z,1.60
2022-10-20T05:01:43.123Z,1.60
2022-10-20T05:04:13.497Z,1.60
2022-10-20T05:06:42.303Z,1.60
2022-10-20T05:09:12.436Z,1.60
2022-10-20T05:11:41.320Z,1.50
2022-10-20T05:14:10.487Z,1.60
2022-10-20T05:16:39.436Z,1.50
2022-10-20T05:19:08.287Z,1.50
2022-10-20T05:21:38.752Z,1.60
2022-10-20T05:24:08.252Z,1.60
2022-10-20T05:26:37.640Z,1.60
2022-10-20T05:29:07.943Z,1.60
2022-10-20T05:31:39.071Z,1.60
2022-10-20T05:34:08.031Z,1.60
2022-10-20T05:36:38.427Z,1.70
2022-10-20T05:39:07.197Z,1.70
2022-10-20T05:41:38.828Z,1.70
2022-10-20T05:44:10.079Z,1.70
2022-10-20T05:46:41.881Z,1.80
2022-10-20T05:49:15.843Z,1.80
2022-10-20T05:51:47.222Z,1.80
2022-10-20T05:54:16.750Z,1.90
2022-10-20T05:56:45.932Z,1.90
2022-10-20T05:59:15.225Z,1.90
2022-10-20T06:01:49.302Z,2.00
2022-10-20T06:04:19.769Z,2.00
2022-10-20T06:06:49.838Z,2.10
2022-10-20T06:09:20.060Z,2.10
2022-10-20T06:11:49.068Z,2.20
2022-10-20T06:14:18.644Z,2.10
2022-10-20T06:16:47.324Z,2.30
2022-10-20T06:19:16.213Z,2.30
2022-10-20T06:21:44.891Z,2.40
2022-10-20T06:24:15.226Z,2.50
2022-10-20T06:26:45.307Z,2.50
2022-10-20T06:29:16.338Z,2.60
2022-10-20T06:31:46.708Z,2.80
2022-10-20T06:34:17.313Z,2.90
2022-10-20T06:36:46.662Z,2.90
2022-10-20T06:39:18.991Z,3.00
2022-10-20T06:41:50.512Z,3.10
2022-10-20T06:44:19.494Z,3.20
2022-10-20T06:46:48.227Z,3.20
2022-10-20T06:49:16.999Z,3.30
2022-10-20T06:51:45.742Z,3.40
2022-10-20T06:54:15.956Z,3.50
2022-10-20T06:56:44.623Z,3.50
2022-10-20T06:59:13.319Z,3.60
2022-10-20T07:01:42.470Z,3.70
2022-10-20T07:04:15.661Z,3.80
2022-10-20T07:06:46.132Z,3.80
2022-10-20T07:09:18.761Z,3.90
2022-10-20T07:11:47.805Z,4.00
2022-10-20T07:14:16.619Z,4.10
2022-10-20T07:16:45.396Z,4.10
2022-10-20T07:19:14.105Z,4.20
2022-10-20T07:21:45.477Z,4.20
2022-10-20T07:24:17.209Z,4.30
2022-10-20T07:26:46.062Z,4.40
2022-10-20T07:29:15.178Z,4.60
2022-10-20T07:31:45.508Z,4.70
2022-10-20T07:34:31.220Z,4.80
2022-10-20T07:37:00.178Z,4.90
2022-10-20T07:39:30.646Z,5.10
2022-10-20T07:41:59.385Z,5.40
2022-10-20T07:44:28.060Z,5.70
2022-10-20T07:46:56.721Z,6.00
2022-10-20T07:52:16.716Z,6.60
2022-10-20T07:54:47.594Z,6.80
2022-10-20T07:57:16.394Z,7.00
2022-10-20T07:59:45.218Z,7.30
2022-10-20T08:02:16.015Z,7.40
2022-10-20T08:04:45.955Z,7.60
2022-10-20T08:07:14.924Z,7.80
2022-10-20T08:12:15.314Z,8.10
2022-10-20T08:14:44.920Z,8.20
2022-10-20T08:17:13.699Z,8.30
2022-10-20T08:19:57.868Z,8.40
2022-10-20T08:22:26.507Z,8.50
2022-10-20T08:24:55.485Z,8.70
2022-10-20T08:27:25.753Z,8.80
2022-10-20T08:30:00.178Z,9.00
2022-10-20T08:32:35.455Z,9.10
2022-10-20T08:35:05.006Z,9.30
2022-10-20T08:37:34.658Z,9.40
2022-10-20T08:40:03.885Z,9.50
2022-10-20T08:42:40.929Z,9.60
2022-10-20T08:45:16.009Z,9.70
2022-10-20T08:47:47.369Z,9.80
2022-10-20T08:50:17.872Z,10.00
2022-10-20T08:52:49.405Z,10.20
2022-10-20T08:55:26.197Z,10.20
2022-10-20T08:58:02.100Z,10.40
2022-10-20T09:00:32.484Z,10.40
2022-10-20T09:03:12.456Z,10.60
2022-10-20T09:05:44.728Z,10.60
2022-10-20T09:08:13.430Z,10.70
2022-10-20T09:10:46.122Z,10.60
2022-10-20T09:13:23.815Z,10.30
2022-10-20T09:15:55.349Z,10.00
2022-10-20T09:18:24.145Z,9.80
2022-10-20T09:20:55.279Z,9.60
2022-10-20T09:23:40.494Z,9.40
2022-10-20T09:26:24.994Z,9.30
2022-10-20T09:29:13.886Z,9.30
2022-10-20T09:31:45.910Z,9.20
2022-10-20T09:34:26.272Z,9.20
2022-10-20T09:37:00.247Z,9.10
2022-10-20T09:39:31.211Z,9.00
2022-10-20T09:42:07.271Z,8.90
2022-10-20T09:44:50.756Z,8.80
2022-10-20T09:47:20.584Z,8.70
2022-10-20T09:49:58.441Z,8.60
2022-10-20T09:52:34.714Z,8.70
2022-10-20T09:55:06.135Z,8.80
2022-10-20T09:57:35.119Z,8.90
2022-10-20T10:00:25.165Z,8.90
2022-10-20T10:03:21.601Z,9.10
2022-10-20T10:05:55.312Z,9.10
2022-10-20T10:08:26.537Z,9.10
2022-10-20T10:11:06.283Z,9.20
2022-10-20T10:13:40.934Z,9.30
2022-10-20T10:16:14.402Z,9.30
2022-10-20T10:18:48.495Z,9.40
2022-10-20T10:21:18.260Z,9.40
2022-10-20T10:23:55.855Z,9.50
2022-10-20T10:26:54.983Z,9.70
2022-10-20T10:29:29.783Z,10.00
2022-10-20T10:32:04.102Z,10.30
2022-10-20T10:34:52.537Z,10.50
2022-10-20T10:39:57.012Z,10.60
2022-10-20T10:42:57.926Z,10.50
2022-10-20T10:45:45.413Z,10.50
2022-10-20T10:48:57.250Z,10.50
2022-10-20T10:51:43.071Z,10.80
2022-10-20T10:54:27.462Z,11.00
2022-10-20T10:57:00.519Z,11.40
2022-10-20T10:59:33.935Z,11.60
2022-10-20T11:02:23.106Z,11.80
2022-10-20T11:05:24.316Z,11.90
2022-10-20T11:08:05.931Z,11.90
2022-10-20T11:10:41.660Z,11.80
2022-10-20T11:13:31.860Z,11.70
2022-10-20T11:16:09.928Z,11.60
2022-10-20T11:18:55.810Z,11.40
2022-10-20T11:21:30.696Z,11.30
2022-10-20T11:24:13.306Z,11.30
2022-10-20T11:26:44.989Z,11.40
2022-10-20T11:29:20.958Z,11.40
2022-10-20T11:31:55.184Z,11.50
2022-10-20T11:34:31.275Z,11.40
2022-10-20T11:37:05.137Z,11.40
2022-10-20T11:39:44.342Z,11.20
2022-10-20T11:42:25.052Z,11.10
2022-10-20T11:44:55.805Z,11.00
2022-10-20T11:47:32.182Z,11.00
2022-10-20T11:50:01.345Z,11.00
2022-10-20T11:53:00.778Z,11.00
2022-10-20T11:56:05.965Z,11.00
2022-10-20T11:59:03.489Z,11.00
2022-10-20T12:04:52.962Z,10.60
2022-10-20T12:07:46.492Z,10.40
2022-10-20T12:10:42.124Z,10.20
2022-10-20T12:13:27.121Z,10.00
2022-10-20T12:15:55.987Z,9.90
2022-10-20T12:18:28.966Z,9.80
2022-10-20T12:21:01.769Z,9.70
2022-10-20T12:24:04.304Z,9.70
2022-10-20T12:27:17.891Z,9.70
2022-10-20T12:30:05.647Z,9.70
2022-10-20T12:32:57.831Z,9.90
2022-10-20T12:36:01.041Z,10.30
2022-10-20T12:38:32.334Z,10.70
2022-10-20T12:41:02.875Z,11.00
2022-10-20T12:43:37.072Z,11.10
2022-10-20T12:46:12.082Z,11.30
2022-10-20T12:48:47.108Z,11.40
2022-10-20T12:51:23.322Z,11.50
2022-10-20T12:54:02.159Z,11.60
2022-10-20T12:56:38.440Z,11.60
2022-10-20T12:59:46.702Z,11.60
2022-10-20T13:02:44.461Z,11.60
2022-10-20T13:05:43.112Z,11.70
2022-10-20T13:08:34.095Z,11.70
2022-10-20T13:11:41.082Z,11.80
2022-10-20T13:14:39.546Z,11.90
2022-10-20T13:17:19.478Z,11.90
2022-10-20T13:19:52.543Z,11.80
2022-10-20T13:22:46.951Z,11.70
2022-10-20T13:25:27.725Z,11.60
2022-10-20T13:28:13.940Z,11.60
2022-10-20T13:31:10.986Z,11.60
2022-10-20T13:36:50.635Z,11.50
2022-10-20T13:39:24.450Z,11.40
2022-10-20T13:42:01.238Z,11.40
2022-10-20T13:44:41.463Z,11.40
2022-10-20T13:47:29.477Z,11.30
2022-10-20T13:50:06.084Z,11.30
2022-10-20T13:52:39.826Z,11.20
2022-10-20T13:55:16.129Z,11.20
2022-10-20T13:57:55.568Z,11.20
2022-10-20T14:00:28.456Z,11.20
2022-10-20T14:03:00.264Z,11.20
2022-10-20T14:05:30.598Z,11.10
2022-10-20T14:08:06.171Z,11.10
2022-10-20T14:10:44.336Z,11.10
2022-10-20T14:13:17.511Z,11.00
2022-10-20T14:15:48.964Z,11.00
2022-10-20T14:18:24.806Z,10.90
2022-10-20T14:21:00.298Z,10.90
2022-10-20T14:23:35.819Z,10.80
2022-10-20T14:26:05.392Z,10.80
2022-10-20T14:28:36.843Z,10.70
2022-10-20T14:31:05.999Z,10.70
2022-10-20T14:33:39.015Z,10.60
2022-10-20T14:36:08.026Z,10.60
2022-10-20T14:38:39.316Z,10.50
2022-10-20T14:41:09.949Z,10.50
2022-10-20T14:43:42.093Z,10.50
2022-10-20T14:46:13.965Z,10.40
2022-10-20T14:48:46.126Z,10.30
2022-10-20T14:51:39.900Z,10.30
2022-10-20T14:54:27.738Z,10.20
2022-10-20T14:56:58.486Z,10.20
2022-10-20T14:59:28.771Z,10.10
2022-10-20T15:02:10.967Z,10.10
2022-10-20T15:04:41.475Z,10.00
2022-10-20T15:07:16.401Z,10.00
2022-10-20T15:09:48.587Z,10.00
2022-10-20T15:12:20.143Z,9.90
2022-10-20T15:14:51.176Z,9.90
2022-10-20T15:17:34.458Z,9.80
2022-10-20T15:20:32.512Z,9.70
2022-10-20T15:23:03.418Z,9.60
2022-10-20T15:25:38.895Z,9.50
2022-10-20T15:28:35.887Z,9.40
2022-10-20T15:31:06.614Z,9.30
2022-10-20T15:33:35.323Z,9.20
2022-10-20T15:36:04.025Z,9.10
2022-10-20T15:38:33.257Z,9.10
2022-10-20T15:41:03.380Z,9.00
2022-10-20T15:43:32.040Z,8.90
2022-10-20T15:46:00.722Z,8.90
2022-10-20T15:48:29.425Z,8.90
2022-10-20T15:50:59.406Z,8.90
2022-10-20T15:53:28.130Z,8.80
2022-10-20T15:55:56.851Z,8.80
2022-10-20T15:58:26.923Z,8.80
2022-10-20T16:00:55.592Z,8.70
2022-10-20T16:03:24.503Z,8.70
2022-10-20T16:05:53.164Z,8.70
2022-10-20T16:08:21.912Z,8.60
2022-10-20T16:10:50.609Z,8.60
2022-10-20T16:13:21.351Z,8.50
2022-10-20T16:15:51.563Z,8.40
2022-10-20T16:18:20.433Z,8.40
2022-10-20T16:20:49.075Z,8.40
2022-10-20T16:23:17.916Z,8.30
2022-10-20T16:25:46.569Z,8.30
2022-10-20T16:28:15.351Z,8.20
2022-10-20T16:30:44.062Z,8.20
2022-10-20T16:33:14.291Z,8.10
2022-10-20T16:35:43.609Z,8.10
2022-10-20T16:38:13.108Z,8.10
2022-10-20T16:40:41.706Z,8.10
2022-10-20T16:43:10.328Z,8.00
2022-10-20T16:45:41.175Z,8.00
2022-10-20T16:48:09.820Z,8.00
2022-10-20T16:50:44.579Z,8.00
2022-10-20T16:53:13.248Z,8.00
2022-10-20T16:55:41.986Z,8.00
2022-10-20T16:58:10.581Z,8.00
2022-10-20T17:00:39.301Z,8.00
2022-10-20T17:03:07.942Z,7.90
2022-10-20T17:05:36.604Z,8.00
2022-10-20T17:08:06.834Z,8.00
2022-10-20T17:10:35.586Z,7.90
2022-10-20T17:13:04.194Z,7.90
2022-10-20T17:15:32.897Z,7.90
2022-10-20T17:18:01.583Z,7.90
2022-10-20T17:20:30.263Z,7.90
2022-10-20T17:22:58.921Z,7.90
2022-10-20T17:25:28.952Z,7.80
2022-10-20T17:27:58.598Z,7.80
2022-10-20T17:30:27.266Z,7.80
2022-10-20T17:32:55.883Z,7.80
2022-10-20T17:35:24.555Z,7.70
2022-10-20T17:37:53.398Z,7.70
2022-10-20T17:40:22.435Z,7.70
2022-10-20T17:42:52.744Z,7.60
2022-10-20T17:45:21.769Z,7.60
2022-10-20T17:47:51.224Z,7.50
2022-10-20T17:50:19.895Z,7.50
2022-10-20T17:52:48.578Z,7.50
2022-10-20T17:55:17.378Z,7.50
2022-10-20T17:57:46.219Z,7.40
2022-10-20T18:00:23.117Z,7.40
2022-10-20T18:03:05.341Z,7.30
2022-10-20T18:05:37.438Z,7.20
2022-10-20T18:08:06.393Z,7.10
2022-10-20T18:10:35.449Z,7.00
2022-10-20T18:13:05.190Z,6.90
2022-10-20T18:15:35.441Z,6.70
2022-10-20T18:18:04.092Z,6.60
2022-10-20T18:20:34.351Z,6.50
2022-10-20T18:23:03.063Z,6.30
2022-10-20T18:25:31.825Z,6.20
2022-10-20T18:28:00.507Z,6.00
2022-10-20T18:30:29.131Z,5.90
2022-10-20T18:32:59.399Z,5.80
2022-10-20T18:35:28.344Z,5.70
2022-10-20T18:37:59.732Z,5.50
2022-10-20T18:40:28.402Z,5.50
2022-10-20T18:42:57.335Z,5.40
2022-10-20T18:45:26.281Z,5.30
2022-10-20T18:47:55.294Z,5.20
2022-10-20T18:50:25.337Z,5.00
2022-10-20T18:52:53.992Z,5.00
2022-10-20T18:55:25.681Z,4.90
2022-10-20T18:57:54.405Z,4.80
2022-10-20T19:00:23.201Z,4.80
2022-10-20T19:02:55.795Z,4.70
2022-10-20T19:05:28.225Z,4.70
2022-10-20T19:07:56.888Z,4.60
2022-10-20T19:10:25.492Z,4.60
2022-10-20T19:12:55.095Z,4.50
2022-10-20T19:15:24.220Z,4.40
2022-10-20T19:17:58.057Z,4.40
2022-10-20T19:20:35.174Z,4.30
2022-10-20T19:23:04.693Z,4.30
2022-10-20T19:25:35.811Z,4.30
2022-10-20T19:28:04.578Z,4.20
2022-10-20T19:30:36.067Z,4.20
2022-10-20T19:33:04.846Z,4.10
2022-10-20T19:35:35.515Z,4.00
2022-10-20T19:38:04.276Z,4.00
2022-10-20T19:40:34.092Z,3.90
2022-10-20T19:43:02.747Z,3.90
2022-10-20T19:45:31.546Z,3.80
2022-10-20T19:48:00.152Z,3.80
2022-10-20T19:50:28.884Z,3.80
2022-10-20T19:53:00.835Z,3.70
2022-10-20T19:55:32.100Z,3.70
2022-10-20T19:58:03.889Z,3.70
2022-10-20T20:00:35.060Z,3.60
2022-10-20T20:03:06.191Z,3.60
2022-10-20T20:05:34.857Z,3.60
2022-10-20T20:08:05.056Z,3.60
2022-10-20T20:10:34.644Z,3.50
2022-10-20T20:13:03.453Z,3.60
2022-10-20T20:15:32.227Z,3.50
2022-10-20T20:18:01.013Z,3.50
2022-10-20T20:20:29.719Z,3.40
2022-10-20T20:22:58.412Z,3.40
2022-10-20T20:25:28.547Z,3.40
2022-10-20T20:27:57.227Z,3.40
2022-10-20T20:30:25.849Z,3.40
2022-10-20T20:32:54.642Z,3.40
2022-10-20T20:35:23.459Z,3.30
2022-10-20T20:37:52.069Z,3.30
2022-10-20T20:40:20.801Z,3.30
2022-10-20T20:42:50.846Z,3.20
2022-10-20T20:45:19.531Z,3.10
2022-10-20T20:47:48.472Z,3.10
2022-10-20T20:50:17.262Z,3.10
2022-10-20T20:52:46.032Z,3.00
2022-10-20T20:55:14.658Z,3.00
2022-10-20T20:57:43.251Z,2.90
2022-10-20T21:00:14.732Z,2.90
2022-10-20T21:02:45.939Z,2.90
2022-10-20T21:05:15.443Z,2.80
2022-10-20T21:07:44.088Z,2.70
2022-10-20T21:10:12.738Z,2.60
2022-10-20T21:12:41.779Z,2.60
2022-10-20T21:15:12.541Z,2.60
2022-10-20T21:17:41.225Z,2.60
2022-10-20T21:20:11.138Z,2.50
2022-10-20T21:22:40.004Z,2.50
2022-10-20T21:25:09.470Z,2.50
2022-10-20T21:27:38.140Z,2.50
2022-10-20T21:30:07.530Z,2.50
2022-10-20T21:32:38.297Z,2.50
2022-10-20T21:35:08.178Z,2.50
2022-10-20T21:37:36.901Z,2.50
2022-10-20T21:40:10.143Z,2.50
2022-10-20T21:42:41.937Z,2.50
2022-10-20T21:45:14.349Z,2.60
2022-10-20T21:47:47.040Z,2.60
2022-10-20T21:50:15.940Z,2.60
2022-10-20T21:52:44.586Z,2.60
2022-10-20T21:55:13.280Z,2.60
2022-10-20T21:57:43.162Z,2.60
2022-10-20T22:00:12.910Z,2.60
2022-10-20T22:02:41.898Z,2.60
2022-10-20T22:05:12.126Z,2.50
2022-10-20T22:07:41.000Z,2.50
2022-10-20T22:10:10.519Z,2.50
2022-10-20T22:12:46.404Z,2.40
2022-10-20T22:15:15.436Z,2.40
2022-10-20T22:17:44.905Z,2.40
2022-10-20T22:20:16.014Z,2.40
2022-10-20T22:22:48.181Z,2.20
2022-10-20T22:25:16.919Z,2.20
2022-10-20T22:27:47.985Z,2.10
2022-10-20T22:30:17.188Z,2.10
2022-10-20T22:32:45.875Z,2.00
2022-10-20T22:35:16.172Z,2.10
2022-10-20T22:37:44.811Z,2.10
2022-10-20T22:40:14.457Z,2.10
2022-10-20T22:42:43.108Z,2.10
2022-10-20T22:45:12.558Z,2.20
2022-10-20T22:47:41.335Z,2.10
2022-10-20T22:50:10.170Z,2.10
2022-10-20T22:52:40.476Z,2.10
2022-10-20T22:55:10.039Z,2.10
2022-10-20T22:57:38.705Z,2.10
2022-10-20T23:00:13.033Z,2.00
2022-10-20T23:02:42.006Z,2.00
2022-10-20T23:05:11.690Z,1.90
2022-10-20T23:07:42.162Z,1.90
2022-10-20T23:10:11.652Z,1.90
2022-10-20T23:12:40.743Z,2.00
2022-10-20T23:15:10.112Z,1.90
2022-10-20T23:17:39.150Z,1.90
2022-10-20T23:20:08.659Z,1.90
2022-10-20T23:22:37.418Z,1.80
2022-10-20T23:25:08.528Z,1.70
2022-10-20T23:27:40.265Z,1.70
2022-10-20T23:30:15.796Z,1.60
2022-10-20T23:32:49.727Z,1.60
2022-10-20T23:35:18.324Z,1.50
2022-10-20T23:37:48.228Z,1.50
2022-10-20T23:40:18.492Z,1.40
2022-10-20T23:42:47.083Z,1.40
2022-10-20T23:45:15.818Z,1.30
2022-10-20T23:47:44.958Z,1.30
2022-10-20T23:50:13.668Z,1.30
2022-10-20T23:52:42.234Z,1.30
2022-10-20T23:55:14.649Z,1.30
2022-10-20T23:57:45.627Z,1.30
